sensor_id;sensor_type;location;lat;lon;timestamp;pressure;altitude;pressure_sealevel;temperature;humidity
10392;BME280;5242;49.244;6.774;2022-09-09T00:07:38;99079.00;;;14.63;95.82
10392;BME280;5242;49.244;6.774;2022-09-09T00:15:23;99068.41;;;14.65;95.36
10392;BME280;5242;49.244;6.774;2022-09-09T00:23:08;99048.84;;;14.66;95.04
10392;BME280;5242;49.244;6.774;2022-09-09T00:30:42;99072.72;;;14.59;96.25
10392;BME280;5242;49.244;6.774;2022-09-09T00:38:18;99059.38;;;14.43;97.32
10392;BME280;5242;49.244;6.774;2022-09-09T00:46:06;99078.16;;;14.30;96.02
10392;BME280;5242;49.244;6.774;2022-09-09T01:01:26;99093.78;;;14.26;97.32
10392;BME280;5242;49.244;6.774;2022-09-09T01:16:45;99092.97;;;14.18;100.00
10392;BME280;5242;49.244;6.774;2022-09-09T01:24:32;99094.16;;;14.13;100.00
10392;BME280;5242;49.244;6.774;2022-09-09T01:40:10;99088.69;;;14.21;100.00
10392;BME280;5242;49.244;6.774;2022-09-09T01:47:42;99086.75;;;14.25;100.00
10392;BME280;5242;49.244;6.774;2022-09-09T01:55:16;99096.94;;;14.28;99.89
10392;BME280;5242;49.244;6.774;2022-09-09T02:10:33;99080.09;;;14.22;99.49
10392;BME280;5242;49.244;6.774;2022-09-09T02:18:10;99076.97;;;14.17;100.00
10392;BME280;5242;49.244;6.774;2022-09-09T02:25:44;99080.44;;;14.13;100.00
10392;BME280;5242;49.244;6.774;2022-09-09T02:33:17;99075.78;;;14.18;99.75
10392;BME280;5242;49.244;6.774;2022-09-09T02:40:49;99082.06;;;14.22;100.00
10392;BME280;5242;49.244;6.774;2022-09-09T02:48:27;99084.78;;;14.22;99.52
10392;BME280;5242;49.244;6.774;2022-09-09T02:56:08;99074.22;;;14.17;98.39
10392;BME280;5242;49.244;6.774;2022-09-09T03:03:41;99074.19;;;14.02;100.00
10392;BME280;5242;49.244;6.774;2022-09-09T03:11:13;99085.09;;;13.91;100.00
10392;BME280;5242;49.244;6.774;2022-09-09T03:18:45;99084.28;;;13.80;99.57
10392;BME280;5242;49.244;6.774;2022-09-09T03:26:17;99093.25;;;13.74;100.00
10392;BME280;5242;49.244;6.774;2022-09-09T03:33:48;99093.63;;;13.68;100.00
10392;BME280;5242;49.244;6.774;2022-09-09T03:41:20;99087.34;;;13.64;100.00
10392;BME280;5242;49.244;6.774;2022-09-09T03:48:52;99085.75;;;13.60;100.00
10392;BME280;5242;49.244;6.774;2022-09-09T03:56:24;99099.44;;;13.53;100.00
10392;BME280;5242;49.244;6.774;2022-09-09T04:03:55;99098.25;;;13.50;100.00
10392;BME280;5242;49.244;6.774;2022-09-09T04:11:29;99103.72;;;13.54;100.00
10392;BME280;5242;49.244;6.774;2022-09-09T04:19:01;99096.38;;;13.68;100.00
10392;BME280;5242;49.244;6.774;2022-09-09T04:26:32;99094.06;;;13.81;100.00
10392;BME280;5242;49.244;6.774;2022-09-09T04:34:04;99107.00;;;13.95;100.00
10392;BME280;5242;49.244;6.774;2022-09-09T04:41:36;99098.44;;;14.07;100.00
10392;BME280;5242;49.244;6.774;2022-09-09T04:49:10;99109.00;;;14.16;100.00
10392;BME280;5242;49.244;6.774;2022-09-09T04:56:45;99115.69;;;14.26;100.00
10392;BME280;5242;49.244;6.774;2022-09-09T05:04:17;99123.16;;;14.36;100.00
10392;BME280;5242;49.244;6.774;2022-09-09T05:11:50;99113.75;;;14.44;100.00
10392;BME280;5242;49.244;6.774;2022-09-09T05:19:22;99112.25;;;14.86;100.00
10392;BME280;5242;49.244;6.774;2022-09-09T05:26:54;99107.97;;;14.78;100.00
10392;BME280;5242;49.244;6.774;2022-09-09T05:34:25;99113.84;;;14.73;100.00
10392;BME280;5242;49.244;6.774;2022-09-09T05:41:57;99111.88;;;14.77;100.00
10392;BME280;5242;49.244;6.774;2022-09-09T05:49:28;99126.38;;;14.88;100.00
10392;BME280;5242;49.244;6.774;2022-09-09T05:56:59;99137.31;;;15.03;100.00
10392;BME280;5242;49.244;6.774;2022-09-09T06:04:31;99140.84;;;15.10;100.00
10392;BME280;5242;49.244;6.774;2022-09-09T06:12:03;99133.00;;;15.19;100.00
10392;BME280;5242;49.244;6.774;2022-09-09T06:19:34;99135.72;;;15.30;100.00
10392;BME280;5242;49.244;6.774;2022-09-09T06:27:06;99143.16;;;15.33;100.00
10392;BME280;5242;49.244;6.774;2022-09-09T06:34:38;99150.19;;;15.49;100.00
10392;BME280;5242;49.244;6.774;2022-09-09T06:42:09;99148.56;;;15.65;100.00
10392;BME280;5242;49.244;6.774;2022-09-09T06:49:41;99153.66;;;15.74;100.00
10392;BME280;5242;49.244;6.774;2022-09-09T06:57:18;99146.16;;;15.89;100.00
10392;BME280;5242;49.244;6.774;2022-09-09T07:05:09;99143.66;;;16.20;100.00
10392;BME280;5242;49.244;6.774;2022-09-09T07:12:41;99157.97;;;16.56;98.07
10392;BME280;5242;49.244;6.774;2022-09-09T07:20:13;99165.72;;;16.76;95.97
10392;BME280;5242;49.244;6.774;2022-09-09T07:27:45;99168.69;;;16.99;95.76
10392;BME280;5242;49.244;6.774;2022-09-09T07:35:17;99166.97;;;17.57;92.48
10392;BME280;5242;49.244;6.774;2022-09-09T07:42:48;99175.09;;;17.72;89.48
10392;BME280;5242;49.244;6.774;2022-09-09T07:50:20;99173.25;;;17.62;89.52
10392;BME280;5242;49.244;6.774;2022-09-09T07:57:55;99169.88;;;17.81;90.23
10392;BME280;5242;49.244;6.774;2022-09-09T08:05:27;99171.06;;;18.14;86.50
10392;BME280;5242;49.244;6.774;2022-09-09T08:12:58;99166.78;;;18.40;87.14
10392;BME280;5242;49.244;6.774;2022-09-09T08:20:48;99176.88;;;18.51;85.72
10392;BME280;5242;49.244;6.774;2022-09-09T08:28:20;99173.41;;;18.46;84.35
10392;BME280;5242;49.244;6.774;2022-09-09T08:35:51;99173.75;;;19.03;85.12
10392;BME280;5242;49.244;6.774;2022-09-09T08:43:24;99169.28;;;20.16;79.60
10392;BME280;5242;49.244;6.774;2022-09-09T08:50:55;99168.34;;;21.86;73.64
10392;BME280;5242;49.244;6.774;2022-09-09T08:58:34;99163.34;;;25.53;65.57
10392;BME280;5242;49.244;6.774;2022-09-09T09:06:22;99171.09;;;27.23;55.52
10392;BME280;5242;49.244;6.774;2022-09-09T09:14:03;99158.66;;;27.24;54.83
10392;BME280;5242;49.244;6.774;2022-09-09T09:21:48;99151.16;;;26.73;49.00
10392;BME280;5242;49.244;6.774;2022-09-09T09:29:24;99161.03;;;24.43;53.99
10392;BME280;5242;49.244;6.774;2022-09-09T09:36:59;99145.13;;;23.69;52.43
10392;BME280;5242;49.244;6.774;2022-09-09T09:44:32;99141.94;;;26.57;47.95
10392;BME280;5242;49.244;6.774;2022-09-09T09:52:23;99111.78;;;29.69;39.80
10392;BME280;5242;49.244;6.774;2022-09-09T10:00:04;99111.25;;;32.48;34.26
10392;BME280;5242;49.244;6.774;2022-09-09T10:07:44;99117.16;;;32.22;36.26
10392;BME280;5242;49.244;6.774;2022-09-09T10:39:03;99138.84;;;22.22;51.60
10392;BME280;5242;49.244;6.774;2022-09-09T11:02:05;99106.69;;;29.47;37.10
10392;BME280;5242;49.244;6.774;2022-09-09T11:09:48;99101.56;;;30.62;37.49
10392;BME280;5242;49.244;6.774;2022-09-09T11:17:25;99086.38;;;29.32;37.89
10392;BME280;5242;49.244;6.774;2022-09-09T11:40:33;99088.44;;;27.61;37.87
10392;BME280;5242;49.244;6.774;2022-09-09T11:48:22;99106.38;;;25.17;40.46
10392;BME280;5242;49.244;6.774;2022-09-09T11:56:02;99121.59;;;23.38;44.22
10392;BME280;5242;49.244;6.774;2022-09-09T12:11:06;99086.63;;;29.81;36.80
10392;BME280;5242;49.244;6.774;2022-09-09T12:18:38;99105.56;;;29.86;34.57
10392;BME280;5242;49.244;6.774;2022-09-09T12:34:11;99132.72;;;24.36;49.58
10392;BME280;5242;49.244;6.774;2022-09-09T12:41:54;99131.91;;;21.59;55.53
10392;BME280;5242;49.244;6.774;2022-09-09T12:49:31;99117.19;;;20.14;63.32
10392;BME280;5242;49.244;6.774;2022-09-09T12:57:10;99131.50;;;19.29;68.39
10392;BME280;5242;49.244;6.774;2022-09-09T13:04:43;99112.38;;;19.19;69.37
10392;BME280;5242;49.244;6.774;2022-09-09T13:12:20;99104.06;;;21.33;66.50
10392;BME280;5242;49.244;6.774;2022-09-09T13:19:53;99082.97;;;25.33;55.51
10392;BME280;5242;49.244;6.774;2022-09-09T13:27:30;99071.69;;;28.40;47.99
10392;BME280;5242;49.244;6.774;2022-09-09T13:35:01;99070.31;;;28.15;46.08
10392;BME280;5242;49.244;6.774;2022-09-09T13:42:39;99067.28;;;28.69;44.14
10392;BME280;5242;49.244;6.774;2022-09-09T13:50:20;99041.66;;;28.56;43.70
10392;BME280;5242;49.244;6.774;2022-09-09T13:57:54;99050.56;;;26.82;46.64
10392;BME280;5242;49.244;6.774;2022-09-09T14:05:26;99042.78;;;25.77;48.64
10392;BME280;5242;49.244;6.774;2022-09-09T14:12:58;99060.38;;;25.04;49.88
10392;BME280;5242;49.244;6.774;2022-09-09T14:20:30;99064.56;;;24.40;51.72
10392;BME280;5242;49.244;6.774;2022-09-09T14:28:01;99063.56;;;23.62;52.50
10392;BME280;5242;49.244;6.774;2022-09-09T14:35:33;99064.59;;;23.34;53.76
10392;BME280;5242;49.244;6.774;2022-09-09T14:43:05;99050.56;;;22.81;55.09
10392;BME280;5242;49.244;6.774;2022-09-09T14:50:36;99052.38;;;22.49;53.88
10392;BME280;5242;49.244;6.774;2022-09-09T14:58:11;99059.66;;;21.66;56.35
10392;BME280;5242;49.244;6.774;2022-09-09T15:05:42;99064.38;;;20.78;64.68
10392;BME280;5242;49.244;6.774;2022-09-09T15:13:15;99083.28;;;19.94;66.51
10392;BME280;5242;49.244;6.774;2022-09-09T15:20:48;99132.88;;;19.61;69.92
10392;BME280;5242;49.244;6.774;2022-09-09T15:28:19;99101.47;;;18.07;68.33
10392;BME280;5242;49.244;6.774;2022-09-09T15:35:50;99114.81;;;16.53;75.34
10392;BME280;5242;49.244;6.774;2022-09-09T15:43:22;99104.56;;;15.98;80.87
10392;BME280;5242;49.244;6.774;2022-09-09T15:51:04;99125.78;;;15.86;79.34
10392;BME280;5242;49.244;6.774;2022-09-09T15:58:56;99128.13;;;15.84;83.23
10392;BME280;5242;49.244;6.774;2022-09-09T16:06:28;99120.28;;;15.86;85.83
10392;BME280;5242;49.244;6.774;2022-09-09T16:14:00;99110.31;;;16.18;86.39
10392;BME280;5242;49.244;6.774;2022-09-09T16:21:34;99125.06;;;16.49;85.74
10392;BME280;5242;49.244;6.774;2022-09-09T16:29:06;99139.28;;;16.92;85.69
10392;BME280;5242;49.244;6.774;2022-09-09T16:36:39;99130.97;;;17.41;85.09
10392;BME280;5242;49.244;6.774;2022-09-09T16:44:13;99137.50;;;17.54;80.85
10392;BME280;5242;49.244;6.774;2022-09-09T16:51:49;99129.41;;;17.40;82.07
10392;BME280;5242;49.244;6.774;2022-09-09T16:59:24;99139.84;;;17.18;84.32
10392;BME280;5242;49.244;6.774;2022-09-09T17:06:56;99153.34;;;17.02;84.60
10392;BME280;5242;49.244;6.774;2022-09-09T17:14:28;99161.31;;;16.89;85.26
10392;BME280;5242;49.244;6.774;2022-09-09T17:22:02;99164.59;;;16.69;87.81
10392;BME280;5242;49.244;6.774;2022-09-09T17:29:47;99178.06;;;16.49;88.47
10392;BME280;5242;49.244;6.774;2022-09-09T17:37:19;99195.78;;;16.38;89.82
10392;BME280;5242;49.244;6.774;2022-09-09T17:44:50;99196.63;;;16.27;92.12
10392;BME280;5242;49.244;6.774;2022-09-09T17:52:21;99211.97;;;16.14;90.66
10392;BME280;5242;49.244;6.774;2022-09-09T17:59:54;99219.06;;;16.12;89.68
10392;BME280;5242;49.244;6.774;2022-09-09T18:07:25;99225.34;;;16.08;93.09
10392;BME280;5242;49.244;6.774;2022-09-09T18:14:56;99223.41;;;16.02;90.73
10392;BME280;5242;49.244;6.774;2022-09-09T18:22:34;99232.44;;;15.99;91.53
10392;BME280;5242;49.244;6.774;2022-09-09T18:30:06;99241.47;;;15.96;93.09
10392;BME280;5242;49.244;6.774;2022-09-09T18:37:37;99246.19;;;15.92;91.60
10392;BME280;5242;49.244;6.774;2022-09-09T18:45:09;99247.75;;;15.89;95.97
10392;BME280;5242;49.244;6.774;2022-09-09T18:52:41;99247.78;;;15.78;93.73
10392;BME280;5242;49.244;6.774;2022-09-09T19:00:12;99258.78;;;15.75;94.81
10392;BME280;5242;49.244;6.774;2022-09-09T19:07:44;99268.94;;;15.67;94.91
10392;BME280;5242;49.244;6.774;2022-09-09T19:15:15;99270.16;;;15.62;94.44
10392;BME280;5242;49.244;6.774;2022-09-09T19:22:48;99278.38;;;15.66;95.71
10392;BME280;5242;49.244;6.774;2022-09-09T19:30:19;99279.56;;;15.65;94.14
10392;BME280;5242;49.244;6.774;2022-09-09T19:37:51;99281.50;;;15.61;99.49
10392;BME280;5242;49.244;6.774;2022-09-09T19:45:22;99288.16;;;15.56;93.03
10392;BME280;5242;49.244;6.774;2022-09-09T19:52:54;99288.19;;;15.53;97.17
10392;BME280;5242;49.244;6.774;2022-09-09T20:00:25;99294.84;;;15.48;96.49
10392;BME280;5242;49.244;6.774;2022-09-09T20:15:29;99287.38;;;15.41;99.42
10392;BME280;5242;49.244;6.774;2022-09-09T20:23:00;99286.22;;;15.35;97.45
10392;BME280;5242;49.244;6.774;2022-09-09T20:30:32;99280.72;;;15.21;98.44
10392;BME280;5242;49.244;6.774;2022-09-09T20:38:08;99279.94;;;15.10;99.73
10392;BME280;5242;49.244;6.774;2022-09-09T20:45:39;99280.31;;;15.08;99.37
10392;BME280;5242;49.244;6.774;2022-09-09T20:53:14;99275.63;;;15.09;100.00
10392;BME280;5242;49.244;6.774;2022-09-09T21:00:45;99270.13;;;15.12;100.00
10392;BME280;5242;49.244;6.774;2022-09-09T21:08:17;99270.53;;;15.04;98.72
10392;BME280;5242;49.244;6.774;2022-09-09T21:15:50;99288.13;;;14.88;98.92
10392;BME280;5242;49.244;6.774;2022-09-09T21:23:22;99294.34;;;14.74;98.74
10392;BME280;5242;49.244;6.774;2022-09-09T21:30:54;99295.88;;;14.65;97.48
10392;BME280;5242;49.244;6.774;2022-09-09T21:38:26;99302.09;;;14.54;99.28
10392;BME280;5242;49.244;6.774;2022-09-09T21:45:58;99310.66;;;14.49;99.05
10392;BME280;5242;49.244;6.774;2022-09-09T21:53:29;99315.31;;;14.38;96.75
10392;BME280;5242;49.244;6.774;2022-09-09T22:01:08;99313.72;;;14.30;99.28
10392;BME280;5242;49.244;6.774;2022-09-09T22:08:40;99323.81;;;14.19;98.73
10392;BME280;5242;49.244;6.774;2022-09-09T22:16:15;99322.63;;;14.16;100.00
10392;BME280;5242;49.244;6.774;2022-09-09T22:23:51;99324.63;;;14.19;100.00
10392;BME280;5242;49.244;6.774;2022-09-09T22:31:24;99324.56;;;14.16;100.00
10392;BME280;5242;49.244;6.774;2022-09-09T22:38:56;99322.63;;;14.16;100.00
10392;BME280;5242;49.244;6.774;2022-09-09T22:46:28;99328.09;;;14.12;100.00
10392;BME280;5242;49.244;6.774;2022-09-09T22:54:00;99323.78;;;14.11;100.00
10392;BME280;5242;49.244;6.774;2022-09-09T23:01:32;99312.84;;;14.11;100.00
10392;BME280;5242;49.244;6.774;2022-09-09T23:09:03;99316.72;;;14.10;100.00
10392;BME280;5242;49.244;6.774;2022-09-09T23:16:42;99318.28;;;14.08;100.00
10392;BME280;5242;49.244;6.774;2022-09-09T23:24:15;99322.16;;;14.03;100.00
10392;BME280;5242;49.244;6.774;2022-09-09T23:31:46;99315.47;;;13.94;100.00
10392;BME280;5242;49.244;6.774;2022-09-09T23:39:18;99306.41;;;13.86;100.00
10392;BME280;5242;49.244;6.774;2022-09-09T23:46:49;99324.69;;;13.75;100.00
10392;BME280;5242;49.244;6.774;2022-09-09T23:54:21;99324.63;;;13.64;100.00
